Waterville, Vermont
Current Conditions -  °F | °C
As of 4:45 PM on Thursday 23 Oct 2014 (Local Time) from KMVL Reporting Station
Light Rain Light Rain  
Wind Chill:   Ceiling: 1400
Heat Index:   Visibility: 2.5mi
Dew Point:   Wind: 6mph
Humidity: 89%   Direction: 350°N
Pressure: 29.9"   Gusts: NA
Location:  44.69°N, 72.77°W
Report Text: KMVL 232045Z AUTO 35005KT 2 1/2SM -RA BR OVC014 08/06 A2990 RMK AO2 RAB23 P0001 T00780061
Loading
Personal Weather Stations






























Interactive Weather Map New forecast layout! Learn more

10-Day Weather Forecast

Advertisements
Track Severe Weather on mobile